sensor_id;sensor_type;location;lat;lon;timestamp;temperature;humidity
74792;SHT30;63319;46.046;17.802;2023-02-28T00:02:58;19.76;42.93
74792;SHT30;63319;46.046;17.802;2023-02-28T00:06:03;19.76;42.53
74792;SHT30;63319;46.046;17.802;2023-02-28T00:09:06;19.78;42.40
74792;SHT30;63319;46.046;17.802;2023-02-28T00:12:09;19.76;42.30
74792;SHT30;63319;46.046;17.802;2023-02-28T00:15:13;19.73;43.14
74792;SHT30;63319;46.046;17.802;2023-02-28T00:18:16;19.76;42.72
74792;SHT30;63319;46.046;17.802;2023-02-28T00:21:19;19.72;42.74
74792;SHT30;63319;46.046;17.802;2023-02-28T00:24:22;19.73;42.65
74792;SHT30;63319;46.046;17.802;2023-02-28T00:27:29;19.72;42.97
74792;SHT30;63319;46.046;17.802;2023-02-28T00:30:32;19.73;42.61
74792;SHT30;63319;46.046;17.802;2023-02-28T00:33:35;19.72;42.42
74792;SHT30;63319;46.046;17.802;2023-02-28T00:36:37;19.73;42.91
74792;SHT30;63319;46.046;17.802;2023-02-28T00:39:40;19.73;42.55
74792;SHT30;63319;46.046;17.802;2023-02-28T00:42:43;19.71;42.46
74792;SHT30;63319;46.046;17.802;2023-02-28T00:45:47;19.71;42.94
74792;SHT30;63319;46.046;17.802;2023-02-28T00:48:50;19.71;42.82
74792;SHT30;63319;46.046;17.802;2023-02-28T00:51:54;19.69;42.55
74792;SHT30;63319;46.046;17.802;2023-02-28T00:54:57;19.69;42.67
74792;SHT30;63319;46.046;17.802;2023-02-28T00:58:00;19.71;42.32
74792;SHT30;63319;46.046;17.802;2023-02-28T01:01:03;19.72;42.31
74792;SHT30;63319;46.046;17.802;2023-02-28T01:04:06;19.71;42.83
74792;SHT30;63319;46.046;17.802;2023-02-28T01:07:10;19.69;42.52
74792;SHT30;63319;46.046;17.802;2023-02-28T01:10:14;19.69;42.99
74792;SHT30;63319;46.046;17.802;2023-02-28T01:13:18;19.71;42.62
74792;SHT30;63319;46.046;17.802;2023-02-28T01:16:21;19.72;42.65
74792;SHT30;63319;46.046;17.802;2023-02-28T01:19:25;19.66;42.33
74792;SHT30;63319;46.046;17.802;2023-02-28T01:22:28;19.69;42.63
74792;SHT30;63319;46.046;17.802;2023-02-28T01:25:37;19.69;42.63
74792;SHT30;63319;46.046;17.802;2023-02-28T01:28:40;19.66;42.75
74792;SHT30;63319;46.046;17.802;2023-02-28T01:31:43;19.68;42.63
74792;SHT30;63319;46.046;17.802;2023-02-28T01:34:46;19.68;42.25
74792;SHT30;63319;46.046;17.802;2023-02-28T01:37:49;19.68;43.00
74792;SHT30;63319;46.046;17.802;2023-02-28T01:40:53;19.68;41.92
74792;SHT30;63319;46.046;17.802;2023-02-28T01:43:57;19.68;42.02
74792;SHT30;63319;46.046;17.802;2023-02-28T01:47:00;19.63;42.69
74792;SHT30;63319;46.046;17.802;2023-02-28T01:50:06;19.65;42.22
74792;SHT30;63319;46.046;17.802;2023-02-28T01:53:14;19.66;42.75
74792;SHT30;63319;46.046;17.802;2023-02-28T01:56:26;19.65;42.61
74792;SHT30;63319;46.046;17.802;2023-02-28T01:59:43;19.63;42.14
74792;SHT30;63319;46.046;17.802;2023-02-28T02:02:54;19.62;42.16
74792;SHT30;63319;46.046;17.802;2023-02-28T02:05:58;19.63;42.48
74792;SHT30;63319;46.046;17.802;2023-02-28T02:09:03;19.63;41.89
74792;SHT30;63319;46.046;17.802;2023-02-28T02:15:44;19.58;42.54
74792;SHT30;63319;46.046;17.802;2023-02-28T02:36:22;19.55;42.38
74792;SHT30;63319;46.046;17.802;2023-02-28T02:39:34;19.58;42.74
74792;SHT30;63319;46.046;17.802;2023-02-28T02:46:37;19.58;42.28
74792;SHT30;63319;46.046;17.802;2023-02-28T02:49:45;19.57;42.15
74792;SHT30;63319;46.046;17.802;2023-02-28T02:52:53;19.57;41.78
74792;SHT30;63319;46.046;17.802;2023-02-28T02:56:00;19.57;42.23
74792;SHT30;63319;46.046;17.802;2023-02-28T02:59:08;19.54;41.88
74792;SHT30;63319;46.046;17.802;2023-02-28T03:02:14;19.57;42.12
74792;SHT30;63319;46.046;17.802;2023-02-28T03:05:21;19.55;42.21
74792;SHT30;63319;46.046;17.802;2023-02-28T03:08:27;19.55;42.11
74792;SHT30;63319;46.046;17.802;2023-02-28T03:11:31;19.55;42.29
74792;SHT30;63319;46.046;17.802;2023-02-28T03:21:35;19.55;41.86
74792;SHT30;63319;46.046;17.802;2023-02-28T03:34:33;19.55;42.01
74792;SHT30;63319;46.046;17.802;2023-02-28T03:37:39;19.52;41.45
74792;SHT30;63319;46.046;17.802;2023-02-28T03:40:48;19.47;41.47
74792;SHT30;63319;46.046;17.802;2023-02-28T03:43:59;19.50;41.51
74792;SHT30;63319;46.046;17.802;2023-02-28T03:47:13;19.48;42.26
74792;SHT30;63319;46.046;17.802;2023-02-28T03:53:41;19.51;42.03
74792;SHT30;63319;46.046;17.802;2023-02-28T04:00:18;19.47;42.40
74792;SHT30;63319;46.046;17.802;2023-02-28T04:03:24;19.47;41.93
74792;SHT30;63319;46.046;17.802;2023-02-28T04:06:30;19.44;41.69
74792;SHT30;63319;46.046;17.802;2023-02-28T04:09:34;19.47;41.59
74792;SHT30;63319;46.046;17.802;2023-02-28T04:12:37;19.48;41.70
74792;SHT30;63319;46.046;17.802;2023-02-28T04:15:40;19.50;42.24
74792;SHT30;63319;46.046;17.802;2023-02-28T04:18:43;19.48;41.62
74792;SHT30;63319;46.046;17.802;2023-02-28T04:21:49;19.48;41.93
74792;SHT30;63319;46.046;17.802;2023-02-28T04:24:52;19.47;41.33
74792;SHT30;63319;46.046;17.802;2023-02-28T04:27:56;19.44;41.71
74792;SHT30;63319;46.046;17.802;2023-02-28T04:31:02;19.45;41.60
74792;SHT30;63319;46.046;17.802;2023-02-28T04:34:06;19.44;41.55
74792;SHT30;63319;46.046;17.802;2023-02-28T04:37:09;19.44;41.21
74792;SHT30;63319;46.046;17.802;2023-02-28T04:40:16;19.42;41.30
74792;SHT30;63319;46.046;17.802;2023-02-28T04:43:18;19.42;41.70
74792;SHT30;63319;46.046;17.802;2023-02-28T04:46:22;19.42;41.24
74792;SHT30;63319;46.046;17.802;2023-02-28T04:49:25;19.39;41.24
74792;SHT30;63319;46.046;17.802;2023-02-28T04:52:28;19.41;41.68
74792;SHT30;63319;46.046;17.802;2023-02-28T04:55:31;19.39;41.72
74792;SHT30;63319;46.046;17.802;2023-02-28T04:58:34;19.39;41.71
74792;SHT30;63319;46.046;17.802;2023-02-28T05:01:37;19.44;41.70
74792;SHT30;63319;46.046;17.802;2023-02-28T05:04:40;19.41;41.42
74792;SHT30;63319;46.046;17.802;2023-02-28T05:07:42;19.38;41.41
74792;SHT30;63319;46.046;17.802;2023-02-28T05:10:45;19.38;41.47
74792;SHT30;63319;46.046;17.802;2023-02-28T05:13:49;19.39;40.88
74792;SHT30;63319;46.046;17.802;2023-02-28T05:16:52;19.39;41.38
74792;SHT30;63319;46.046;17.802;2023-02-28T05:19:54;19.38;41.43
74792;SHT30;63319;46.046;17.802;2023-02-28T05:23:17;19.38;41.36
74792;SHT30;63319;46.046;17.802;2023-02-28T05:26:20;19.36;41.58
74792;SHT30;63319;46.046;17.802;2023-02-28T05:29:24;19.36;41.02
74792;SHT30;63319;46.046;17.802;2023-02-28T05:32:27;19.39;41.92
74792;SHT30;63319;46.046;17.802;2023-02-28T05:35:29;19.38;41.54
74792;SHT30;63319;46.046;17.802;2023-02-28T05:38:33;19.36;41.13
74792;SHT30;63319;46.046;17.802;2023-02-28T05:41:41;19.38;41.61
74792;SHT30;63319;46.046;17.802;2023-02-28T05:44:45;19.36;41.44
74792;SHT30;63319;46.046;17.802;2023-02-28T05:47:48;19.35;41.06
74792;SHT30;63319;46.046;17.802;2023-02-28T05:50:50;19.34;41.48
74792;SHT30;63319;46.046;17.802;2023-02-28T05:53:53;19.36;41.51
74792;SHT30;63319;46.046;17.802;2023-02-28T05:56:56;19.35;41.38
74792;SHT30;63319;46.046;17.802;2023-02-28T06:00:00;19.34;42.03
74792;SHT30;63319;46.046;17.802;2023-02-28T06:03:02;19.36;41.19
74792;SHT30;63319;46.046;17.802;2023-02-28T06:06:05;19.39;41.59
74792;SHT30;63319;46.046;17.802;2023-02-28T06:09:08;19.39;41.63
74792;SHT30;63319;46.046;17.802;2023-02-28T06:12:11;19.41;41.31
74792;SHT30;63319;46.046;17.802;2023-02-28T06:15:15;19.42;41.14
74792;SHT30;63319;46.046;17.802;2023-02-28T06:18:18;19.41;41.52
74792;SHT30;63319;46.046;17.802;2023-02-28T06:21:21;19.41;41.55
74792;SHT30;63319;46.046;17.802;2023-02-28T06:24:25;19.41;41.99
74792;SHT30;63319;46.046;17.802;2023-02-28T06:27:32;19.41;42.63
74792;SHT30;63319;46.046;17.802;2023-02-28T06:30:37;19.45;41.38
74792;SHT30;63319;46.046;17.802;2023-02-28T06:33:40;19.45;41.19
74792;SHT30;63319;46.046;17.802;2023-02-28T06:36:43;19.47;41.46
74792;SHT30;63319;46.046;17.802;2023-02-28T06:39:46;19.51;41.76
74792;SHT30;63319;46.046;17.802;2023-02-28T06:42:50;19.52;41.48
74792;SHT30;63319;46.046;17.802;2023-02-28T06:45:56;19.55;41.61
74792;SHT30;63319;46.046;17.802;2023-02-28T06:48:59;19.58;41.39
74792;SHT30;63319;46.046;17.802;2023-02-28T06:52:02;19.55;41.74
74792;SHT30;63319;46.046;17.802;2023-02-28T06:55:07;19.15;39.24
74792;SHT30;63319;46.046;17.802;2023-02-28T06:58:10;18.21;38.11
74792;SHT30;63319;46.046;17.802;2023-02-28T07:01:21;16.39;40.29
74792;SHT30;63319;46.046;17.802;2023-02-28T07:04:26;15.46;45.49
74792;SHT30;63319;46.046;17.802;2023-02-28T07:07:29;15.10;45.38
74792;SHT30;63319;46.046;17.802;2023-02-28T07:10:33;14.93;45.46
74792;SHT30;63319;46.046;17.802;2023-02-28T07:13:36;14.61;46.31
74792;SHT30;63319;46.046;17.802;2023-02-28T07:16:38;14.27;46.89
74792;SHT30;63319;46.046;17.802;2023-02-28T07:19:45;13.70;47.60
74792;SHT30;63319;46.046;17.802;2023-02-28T07:22:49;14.03;48.07
74792;SHT30;63319;46.046;17.802;2023-02-28T07:25:58;14.14;48.33
74792;SHT30;63319;46.046;17.802;2023-02-28T07:29:01;13.86;47.73
74792;SHT30;63319;46.046;17.802;2023-02-28T07:32:07;13.85;48.97
74792;SHT30;63319;46.046;17.802;2023-02-28T07:35:10;13.70;50.06
74792;SHT30;63319;46.046;17.802;2023-02-28T07:38:13;13.67;48.55
74792;SHT30;63319;46.046;17.802;2023-02-28T07:41:20;12.90;48.87
74792;SHT30;63319;46.046;17.802;2023-02-28T07:44:23;13.11;51.47
74792;SHT30;63319;46.046;17.802;2023-02-28T07:47:26;13.28;57.64
74792;SHT30;63319;46.046;17.802;2023-02-28T07:50:29;14.51;56.71
74792;SHT30;63319;46.046;17.802;2023-02-28T07:53:33;15.41;54.25
74792;SHT30;63319;46.046;17.802;2023-02-28T07:56:36;16.06;52.54
74792;SHT30;63319;46.046;17.802;2023-02-28T07:59:39;16.59;50.53
74792;SHT30;63319;46.046;17.802;2023-02-28T08:02:42;16.91;49.64
74792;SHT30;63319;46.046;17.802;2023-02-28T08:05:45;17.21;48.70
74792;SHT30;63319;46.046;17.802;2023-02-28T08:08:48;17.47;47.96
74792;SHT30;63319;46.046;17.802;2023-02-28T08:11:51;17.71;47.03
74792;SHT30;63319;46.046;17.802;2023-02-28T08:14:54;18.05;46.63
74792;SHT30;63319;46.046;17.802;2023-02-28T08:17:57;18.15;45.87
74792;SHT30;63319;46.046;17.802;2023-02-28T08:21:09;18.32;45.48
74792;SHT30;63319;46.046;17.802;2023-02-28T08:24:12;18.42;45.47
74792;SHT30;63319;46.046;17.802;2023-02-28T08:27:14;18.49;44.88
74792;SHT30;63319;46.046;17.802;2023-02-28T08:30:18;18.62;45.06
74792;SHT30;63319;46.046;17.802;2023-02-28T08:33:22;18.70;44.83
74792;SHT30;63319;46.046;17.802;2023-02-28T08:36:26;18.86;44.30
74792;SHT30;63319;46.046;17.802;2023-02-28T08:39:34;18.89;44.18
74792;SHT30;63319;46.046;17.802;2023-02-28T08:42:37;18.92;44.66
74792;SHT30;63319;46.046;17.802;2023-02-28T08:45:40;18.93;43.65
74792;SHT30;63319;46.046;17.802;2023-02-28T08:48:43;19.04;44.59
74792;SHT30;63319;46.046;17.802;2023-02-28T08:51:46;19.06;45.22
74792;SHT30;63319;46.046;17.802;2023-02-28T08:54:49;19.17;44.37
74792;SHT30;63319;46.046;17.802;2023-02-28T08:57:54;19.20;43.63
74792;SHT30;63319;46.046;17.802;2023-02-28T09:00:57;19.25;43.27
74792;SHT30;63319;46.046;17.802;2023-02-28T09:04:00;19.34;43.71
74792;SHT30;63319;46.046;17.802;2023-02-28T09:07:04;19.42;44.23
74792;SHT30;63319;46.046;17.802;2023-02-28T09:10:08;19.52;44.90
74792;SHT30;63319;46.046;17.802;2023-02-28T09:13:13;19.78;44.82
74792;SHT30;63319;46.046;17.802;2023-02-28T09:16:17;19.97;44.59
74792;SHT30;63319;46.046;17.802;2023-02-28T09:19:20;20.17;44.45
74792;SHT30;63319;46.046;17.802;2023-02-28T09:22:23;20.29;44.61
74792;SHT30;63319;46.046;17.802;2023-02-28T09:25:26;20.41;44.58
74792;SHT30;63319;46.046;17.802;2023-02-28T09:28:29;20.52;44.64
74792;SHT30;63319;46.046;17.802;2023-02-28T09:31:32;20.64;44.16
74792;SHT30;63319;46.046;17.802;2023-02-28T09:34:35;20.64;44.20
74792;SHT30;63319;46.046;17.802;2023-02-28T09:37:39;20.65;44.76
74792;SHT30;63319;46.046;17.802;2023-02-28T09:40:49;20.75;44.91
74792;SHT30;63319;46.046;17.802;2023-02-28T09:43:55;20.77;44.80
74792;SHT30;63319;46.046;17.802;2023-02-28T09:50:22;20.58;43.46
74792;SHT30;63319;46.046;17.802;2023-02-28T09:53:34;20.55;45.30
74792;SHT30;63319;46.046;17.802;2023-02-28T09:56:39;20.65;45.63
74792;SHT30;63319;46.046;17.802;2023-02-28T10:00:02;20.75;46.17
74792;SHT30;63319;46.046;17.802;2023-02-28T10:03:28;20.77;46.37
74792;SHT30;63319;46.046;17.802;2023-02-28T10:06:39;20.77;46.43
74792;SHT30;63319;46.046;17.802;2023-02-28T10:09:53;20.77;46.41
74792;SHT30;63319;46.046;17.802;2023-02-28T10:12:59;20.79;46.17
74792;SHT30;63319;46.046;17.802;2023-02-28T10:16:12;20.81;45.85
74792;SHT30;63319;46.046;17.802;2023-02-28T10:19:20;20.81;46.20
74792;SHT30;63319;46.046;17.802;2023-02-28T10:25:30;20.89;45.80
74792;SHT30;63319;46.046;17.802;2023-02-28T10:28:33;20.91;45.78
74792;SHT30;63319;46.046;17.802;2023-02-28T10:31:37;20.92;45.61
74792;SHT30;63319;46.046;17.802;2023-02-28T10:34:41;21.05;45.35
74792;SHT30;63319;46.046;17.802;2023-02-28T10:37:46;21.06;45.02
74792;SHT30;63319;46.046;17.802;2023-02-28T10:40:50;21.09;45.06
74792;SHT30;63319;46.046;17.802;2023-02-28T10:44:11;21.13;45.01
74792;SHT30;63319;46.046;17.802;2023-02-28T10:47:19;21.15;44.93
74792;SHT30;63319;46.046;17.802;2023-02-28T10:50:44;21.16;44.80
74792;SHT30;63319;46.046;17.802;2023-02-28T10:53:54;21.13;44.71
74792;SHT30;63319;46.046;17.802;2023-02-28T11:00:22;21.13;44.57
74792;SHT30;63319;46.046;17.802;2023-02-28T11:03:32;21.16;44.19
74792;SHT30;63319;46.046;17.802;2023-02-28T11:06:37;21.22;44.36
74792;SHT30;63319;46.046;17.802;2023-02-28T11:09:54;21.22;44.17
74792;SHT30;63319;46.046;17.802;2023-02-28T11:12:57;21.29;44.24
74792;SHT30;63319;46.046;17.802;2023-02-28T11:16:05;21.32;44.26
74792;SHT30;63319;46.046;17.802;2023-02-28T11:19:38;21.33;44.18
74792;SHT30;63319;46.046;17.802;2023-02-28T11:22:43;21.33;44.02
74792;SHT30;63319;46.046;17.802;2023-02-28T11:25:50;21.39;43.77
74792;SHT30;63319;46.046;17.802;2023-02-28T11:29:09;21.46;43.54
74792;SHT30;63319;46.046;17.802;2023-02-28T11:32:20;21.43;43.01
74792;SHT30;63319;46.046;17.802;2023-02-28T11:35:28;21.36;43.05
74792;SHT30;63319;46.046;17.802;2023-02-28T11:38:33;21.29;42.77
74792;SHT30;63319;46.046;17.802;2023-02-28T11:48:12;21.22;41.69
74792;SHT30;63319;46.046;17.802;2023-02-28T11:52:02;21.22;41.20
74792;SHT30;63319;46.046;17.802;2023-02-28T11:55:14;21.23;40.91
74792;SHT30;63319;46.046;17.802;2023-02-28T12:18:46;21.25;39.97
74792;SHT30;63319;46.046;17.802;2023-02-28T12:22:10;21.25;39.86
74792;SHT30;63319;46.046;17.802;2023-02-28T12:28:45;21.26;39.68
74792;SHT30;63319;46.046;17.802;2023-02-28T12:32:19;21.26;39.48
74792;SHT30;63319;46.046;17.802;2023-02-28T12:35:51;21.29;39.39
74792;SHT30;63319;46.046;17.802;2023-02-28T12:42:05;21.29;38.48
74792;SHT30;63319;46.046;17.802;2023-02-28T12:45:18;21.26;37.89
74792;SHT30;63319;46.046;17.802;2023-02-28T12:51:45;21.25;37.49
74792;SHT30;63319;46.046;17.802;2023-02-28T13:04:55;21.13;38.45
74792;SHT30;63319;46.046;17.802;2023-02-28T13:11:24;21.18;41.32
74792;SHT30;63319;46.046;17.802;2023-02-28T13:14:37;21.18;42.77
74792;SHT30;63319;46.046;17.802;2023-02-28T13:17:40;21.23;43.34
74792;SHT30;63319;46.046;17.802;2023-02-28T13:20:48;21.19;43.80
74792;SHT30;63319;46.046;17.802;2023-02-28T13:40:37;21.16;43.44
74792;SHT30;63319;46.046;17.802;2023-02-28T13:50:19;21.15;42.87
74792;SHT30;63319;46.046;17.802;2023-02-28T13:53:49;21.15;43.01
74792;SHT30;63319;46.046;17.802;2023-02-28T14:04:21;21.06;43.44
74792;SHT30;63319;46.046;17.802;2023-02-28T14:07:44;21.10;44.02
74792;SHT30;63319;46.046;17.802;2023-02-28T14:10:50;21.08;43.85
74792;SHT30;63319;46.046;17.802;2023-02-28T14:14:06;21.10;43.16
74792;SHT30;63319;46.046;17.802;2023-02-28T14:17:14;21.08;43.12
74792;SHT30;63319;46.046;17.802;2023-02-28T14:20:20;21.10;42.60
74792;SHT30;63319;46.046;17.802;2023-02-28T14:23:41;21.13;42.49
74792;SHT30;63319;46.046;17.802;2023-02-28T14:36:50;21.06;42.99
74792;SHT30;63319;46.046;17.802;2023-02-28T14:39:55;21.03;42.52
74792;SHT30;63319;46.046;17.802;2023-02-28T14:43:01;21.00;42.82
74792;SHT30;63319;46.046;17.802;2023-02-28T14:46:07;21.02;42.26
74792;SHT30;63319;46.046;17.802;2023-02-28T14:52:26;20.99;42.47
74792;SHT30;63319;46.046;17.802;2023-02-28T14:55:34;20.95;41.47
74792;SHT30;63319;46.046;17.802;2023-02-28T14:58:37;20.92;42.01
74792;SHT30;63319;46.046;17.802;2023-02-28T15:01:42;20.94;42.97
74792;SHT30;63319;46.046;17.802;2023-02-28T15:04:56;20.96;43.15
74792;SHT30;63319;46.046;17.802;2023-02-28T15:08:12;20.98;42.63
74792;SHT30;63319;46.046;17.802;2023-02-28T15:11:18;20.96;42.97
74792;SHT30;63319;46.046;17.802;2023-02-28T15:14:22;20.96;42.32
74792;SHT30;63319;46.046;17.802;2023-02-28T15:17:26;20.91;42.61
74792;SHT30;63319;46.046;17.802;2023-02-28T15:20:31;20.87;42.31
74792;SHT30;63319;46.046;17.802;2023-02-28T15:23:36;20.85;42.19
74792;SHT30;63319;46.046;17.802;2023-02-28T15:26:46;20.85;42.51
74792;SHT30;63319;46.046;17.802;2023-02-28T15:29:56;20.84;43.26
74792;SHT30;63319;46.046;17.802;2023-02-28T15:33:19;20.81;42.52
74792;SHT30;63319;46.046;17.802;2023-02-28T15:36:26;20.77;42.43
74792;SHT30;63319;46.046;17.802;2023-02-28T15:39:42;20.74;42.55
74792;SHT30;63319;46.046;17.802;2023-02-28T15:46:12;20.77;42.74
74792;SHT30;63319;46.046;17.802;2023-02-28T15:49:20;20.72;42.11
74792;SHT30;63319;46.046;17.802;2023-02-28T15:52:37;20.69;42.76
74792;SHT30;63319;46.046;17.802;2023-02-28T15:55:40;20.69;42.69
74792;SHT30;63319;46.046;17.802;2023-02-28T15:58:44;20.67;42.26
74792;SHT30;63319;46.046;17.802;2023-02-28T16:01:47;20.64;42.44
74792;SHT30;63319;46.046;17.802;2023-02-28T16:08:15;20.61;42.21
74792;SHT30;63319;46.046;17.802;2023-02-28T16:11:20;20.58;42.24
74792;SHT30;63319;46.046;17.802;2023-02-28T16:14:25;20.61;42.50
74792;SHT30;63319;46.046;17.802;2023-02-28T16:17:38;20.55;42.65
74792;SHT30;63319;46.046;17.802;2023-02-28T16:20:41;20.55;42.55
74792;SHT30;63319;46.046;17.802;2023-02-28T16:23:47;20.57;42.73
74792;SHT30;63319;46.046;17.802;2023-02-28T16:26:52;20.60;42.35
74792;SHT30;63319;46.046;17.802;2023-02-28T16:30:00;20.58;42.72
74792;SHT30;63319;46.046;17.802;2023-02-28T16:33:04;20.57;42.62
74792;SHT30;63319;46.046;17.802;2023-02-28T16:36:19;20.57;42.64
74792;SHT30;63319;46.046;17.802;2023-02-28T16:39:23;20.52;42.39
74792;SHT30;63319;46.046;17.802;2023-02-28T16:42:28;20.50;41.70
74792;SHT30;63319;46.046;17.802;2023-02-28T16:45:31;20.50;42.13
74792;SHT30;63319;46.046;17.802;2023-02-28T16:48:36;20.45;41.64
74792;SHT30;63319;46.046;17.802;2023-02-28T16:51:40;20.48;42.29
74792;SHT30;63319;46.046;17.802;2023-02-28T16:54:44;20.45;42.10
74792;SHT30;63319;46.046;17.802;2023-02-28T16:57:54;20.44;42.41
74792;SHT30;63319;46.046;17.802;2023-02-28T17:00:58;20.45;42.31
74792;SHT30;63319;46.046;17.802;2023-02-28T17:04:02;20.43;42.55
74792;SHT30;63319;46.046;17.802;2023-02-28T17:07:13;20.48;42.44
74792;SHT30;63319;46.046;17.802;2023-02-28T17:10:25;20.45;42.28
74792;SHT30;63319;46.046;17.802;2023-02-28T17:13:29;20.41;42.19
74792;SHT30;63319;46.046;17.802;2023-02-28T17:16:34;20.36;41.81
74792;SHT30;63319;46.046;17.802;2023-02-28T17:19:38;20.39;42.30
74792;SHT30;63319;46.046;17.802;2023-02-28T17:22:45;20.40;42.37
74792;SHT30;63319;46.046;17.802;2023-02-28T17:25:51;20.39;42.20
74792;SHT30;63319;46.046;17.802;2023-02-28T17:28:59;20.40;42.20
74792;SHT30;63319;46.046;17.802;2023-02-28T17:32:03;20.36;42.04
74792;SHT30;63319;46.046;17.802;2023-02-28T17:35:24;20.34;42.41
74792;SHT30;63319;46.046;17.802;2023-02-28T17:38:31;20.36;42.21
74792;SHT30;63319;46.046;17.802;2023-02-28T17:41:35;20.34;42.09
74792;SHT30;63319;46.046;17.802;2023-02-28T17:44:43;20.33;42.32
74792;SHT30;63319;46.046;17.802;2023-02-28T17:47:49;20.30;42.20
74792;SHT30;63319;46.046;17.802;2023-02-28T17:50:55;20.30;42.02
74792;SHT30;63319;46.046;17.802;2023-02-28T17:54:02;20.27;42.26
74792;SHT30;63319;46.046;17.802;2023-02-28T17:57:14;20.30;41.93
74792;SHT30;63319;46.046;17.802;2023-02-28T18:00:20;20.29;42.21
74792;SHT30;63319;46.046;17.802;2023-02-28T18:03:27;20.29;42.11
74792;SHT30;63319;46.046;17.802;2023-02-28T18:06:35;20.30;41.82
74792;SHT30;63319;46.046;17.802;2023-02-28T18:09:50;20.27;41.79
74792;SHT30;63319;46.046;17.802;2023-02-28T18:12:54;20.26;41.81
74792;SHT30;63319;46.046;17.802;2023-02-28T18:15:59;20.26;42.01
74792;SHT30;63319;46.046;17.802;2023-02-28T18:19:06;20.24;42.26
74792;SHT30;63319;46.046;17.802;2023-02-28T18:22:23;20.24;41.94
74792;SHT30;63319;46.046;17.802;2023-02-28T18:25:34;20.27;42.10
74792;SHT30;63319;46.046;17.802;2023-02-28T18:28:47;20.27;41.99
74792;SHT30;63319;46.046;17.802;2023-02-28T18:31:55;20.27;41.97
74792;SHT30;63319;46.046;17.802;2023-02-28T18:34:59;20.27;41.77
74792;SHT30;63319;46.046;17.802;2023-02-28T18:38:10;20.21;41.85
74792;SHT30;63319;46.046;17.802;2023-02-28T18:41:16;20.24;42.08
74792;SHT30;63319;46.046;17.802;2023-02-28T18:44:20;20.21;41.91
74792;SHT30;63319;46.046;17.802;2023-02-28T18:47:24;20.20;42.01
74792;SHT30;63319;46.046;17.802;2023-02-28T18:50:37;20.17;41.57
74792;SHT30;63319;46.046;17.802;2023-02-28T18:53:45;20.17;41.82
74792;SHT30;63319;46.046;17.802;2023-02-28T18:56:50;20.17;41.84
74792;SHT30;63319;46.046;17.802;2023-02-28T18:59:54;20.14;41.31
74792;SHT30;63319;46.046;17.802;2023-02-28T19:02:58;20.14;40.98
74792;SHT30;63319;46.046;17.802;2023-02-28T19:06:03;20.14;41.38
74792;SHT30;63319;46.046;17.802;2023-02-28T19:09:08;20.13;41.82
74792;SHT30;63319;46.046;17.802;2023-02-28T19:12:12;20.13;41.93
74792;SHT30;63319;46.046;17.802;2023-02-28T19:15:16;20.14;41.99
74792;SHT30;63319;46.046;17.802;2023-02-28T19:18:20;20.14;41.39
74792;SHT30;63319;46.046;17.802;2023-02-28T19:21:24;20.08;41.37
74792;SHT30;63319;46.046;17.802;2023-02-28T19:24:28;20.10;42.10
74792;SHT30;63319;46.046;17.802;2023-02-28T19:27:32;20.10;41.57
74792;SHT30;63319;46.046;17.802;2023-02-28T19:30:47;20.09;41.57
74792;SHT30;63319;46.046;17.802;2023-02-28T19:33:54;20.12;41.89
74792;SHT30;63319;46.046;17.802;2023-02-28T19:37:01;20.10;42.00
74792;SHT30;63319;46.046;17.802;2023-02-28T19:40:09;20.12;41.07
74792;SHT30;63319;46.046;17.802;2023-02-28T19:43:13;20.13;41.86
74792;SHT30;63319;46.046;17.802;2023-02-28T19:46:19;20.08;41.41
74792;SHT30;63319;46.046;17.802;2023-02-28T19:49:23;20.08;41.38
74792;SHT30;63319;46.046;17.802;2023-02-28T19:52:28;20.10;41.68
74792;SHT30;63319;46.046;17.802;2023-02-28T19:55:34;20.08;41.34
74792;SHT30;63319;46.046;17.802;2023-02-28T19:58:44;20.08;41.48
74792;SHT30;63319;46.046;17.802;2023-02-28T20:01:51;20.06;41.54
74792;SHT30;63319;46.046;17.802;2023-02-28T20:04:58;20.10;41.75
74792;SHT30;63319;46.046;17.802;2023-02-28T20:08:05;20.10;41.79
74792;SHT30;63319;46.046;17.802;2023-02-28T20:11:11;20.10;41.69
74792;SHT30;63319;46.046;17.802;2023-02-28T20:14:18;20.09;41.64
74792;SHT30;63319;46.046;17.802;2023-02-28T20:17:25;20.12;41.53
74792;SHT30;63319;46.046;17.802;2023-02-28T20:20:33;20.12;41.50
74792;SHT30;63319;46.046;17.802;2023-02-28T20:23:40;20.09;41.17
74792;SHT30;63319;46.046;17.802;2023-02-28T20:26:55;20.09;41.44
74792;SHT30;63319;46.046;17.802;2023-02-28T20:30:00;20.09;41.67
74792;SHT30;63319;46.046;17.802;2023-02-28T20:33:07;20.09;41.24
74792;SHT30;63319;46.046;17.802;2023-02-28T20:36:13;20.09;41.49
74792;SHT30;63319;46.046;17.802;2023-02-28T20:39:18;20.08;41.57
74792;SHT30;63319;46.046;17.802;2023-02-28T20:42:21;20.10;41.30
74792;SHT30;63319;46.046;17.802;2023-02-28T20:45:24;20.09;41.38
74792;SHT30;63319;46.046;17.802;2023-02-28T20:48:29;20.09;41.31
74792;SHT30;63319;46.046;17.802;2023-02-28T20:51:33;20.06;41.26
74792;SHT30;63319;46.046;17.802;2023-02-28T20:54:42;20.09;41.48
74792;SHT30;63319;46.046;17.802;2023-02-28T20:57:46;20.09;41.48
74792;SHT30;63319;46.046;17.802;2023-02-28T21:00:50;20.08;41.52
74792;SHT30;63319;46.046;17.802;2023-02-28T21:03:57;20.06;40.61
74792;SHT30;63319;46.046;17.802;2023-02-28T21:07:00;20.06;41.44
74792;SHT30;63319;46.046;17.802;2023-02-28T21:10:04;20.03;41.10
74792;SHT30;63319;46.046;17.802;2023-02-28T21:13:15;20.03;41.31
74792;SHT30;63319;46.046;17.802;2023-02-28T21:16:21;20.08;41.50
74792;SHT30;63319;46.046;17.802;2023-02-28T21:19:24;20.05;41.38
74792;SHT30;63319;46.046;17.802;2023-02-28T21:22:27;20.06;41.25
74792;SHT30;63319;46.046;17.802;2023-02-28T21:25:32;20.03;41.04
74792;SHT30;63319;46.046;17.802;2023-02-28T21:28:36;20.02;41.28
74792;SHT30;63319;46.046;17.802;2023-02-28T21:31:39;20.00;41.42
74792;SHT30;63319;46.046;17.802;2023-02-28T21:34:42;20.03;41.64
74792;SHT30;63319;46.046;17.802;2023-02-28T21:37:45;20.00;41.36
74792;SHT30;63319;46.046;17.802;2023-02-28T21:40:48;20.02;41.52
74792;SHT30;63319;46.046;17.802;2023-02-28T21:43:55;20.02;40.61
74792;SHT30;63319;46.046;17.802;2023-02-28T21:46:58;20.00;41.49
74792;SHT30;63319;46.046;17.802;2023-02-28T21:50:04;20.00;41.45
74792;SHT30;63319;46.046;17.802;2023-02-28T21:53:09;20.00;41.42
74792;SHT30;63319;46.046;17.802;2023-02-28T21:56:18;20.02;41.44
74792;SHT30;63319;46.046;17.802;2023-02-28T21:59:21;19.99;41.26